createdAt,value
2022-12-19T00:00:46.377Z,27.30
2022-12-19T00:03:14.599Z,37.33
2022-12-19T00:05:42.326Z,3.10
2022-12-19T00:08:17.911Z,22.13
2022-12-19T00:10:58.505Z,2.22
2022-12-19T00:13:27.298Z,43.03
2022-12-19T00:16:01.551Z,31.33
2022-12-19T00:18:29.332Z,26.20
2022-12-19T00:20:59.445Z,22.42
2022-12-19T00:23:29.749Z,20.30
2022-12-19T00:26:07.771Z,20.48
2022-12-19T00:28:35.411Z,19.27
2022-12-19T00:31:04.843Z,19.48
2022-12-19T00:33:32.750Z,25.30
2022-12-19T00:36:05.577Z,19.42
2022-12-19T00:38:34.183Z,19.02
2022-12-19T00:41:17.496Z,18.58
2022-12-19T00:43:45.337Z,23.25
2022-12-19T00:46:16.077Z,22.15
2022-12-19T00:48:43.758Z,20.42
2022-12-19T00:51:14.599Z,23.55
2022-12-19T00:53:48.349Z,20.67
2022-12-19T00:56:22.064Z,2.28
2022-12-19T00:58:49.802Z,18.45
2022-12-19T01:01:20.557Z,24.65
2022-12-19T01:04:25.969Z,2.72
2022-12-19T01:06:36.673Z,18.73
2022-12-19T01:09:09.180Z,18.45
2022-12-19T01:11:55.282Z,18.10
2022-12-19T01:14:23.442Z,17.98
2022-12-19T01:16:52.094Z,17.75
2022-12-19T01:19:20.595Z,18.35
2022-12-19T01:21:48.281Z,17.50
2022-12-19T01:24:19.125Z,17.35
2022-12-19T01:26:50.262Z,18.63
2022-12-19T01:29:17.886Z,19.45
2022-12-19T01:31:45.579Z,17.90
2022-12-19T01:34:13.849Z,19.48
2022-12-19T01:36:41.524Z,17.98
2022-12-19T01:39:09.235Z,16.77
2022-12-19T01:41:37.862Z,19.42
2022-12-19T01:44:07.893Z,4.45
2022-12-19T01:46:46.077Z,17.92
2022-12-19T01:49:28.168Z,34.78
2022-12-19T01:52:00.548Z,29.17
2022-12-19T01:54:36.236Z,18.52
2022-12-19T01:57:10.814Z,20.92
2022-12-19T01:59:44.024Z,21.88
2022-12-19T02:02:28.365Z,19.15
2022-12-19T02:04:56.077Z,1.88
2022-12-19T02:07:26.451Z,2.55
2022-12-19T02:09:57.728Z,17.67
2022-12-19T02:12:38.520Z,17.98
2022-12-19T02:15:09.241Z,18.23
2022-12-19T02:17:41.303Z,19.48
2022-12-19T02:20:12.873Z,2.30
2022-12-19T02:22:56.037Z,18.30
2022-12-19T02:25:48.270Z,20.58
2022-12-19T02:28:39.168Z,21.02
2022-12-19T02:31:31.651Z,2.50
2022-12-19T02:34:15.180Z,19.90
2022-12-19T02:36:53.305Z,21.23
2022-12-19T02:39:34.299Z,22.80
2022-12-19T02:42:06.723Z,27.35
2022-12-19T02:44:45.830Z,24.77
2022-12-19T02:47:14.592Z,28.00
2022-12-19T02:49:43.655Z,23.02
2022-12-19T02:52:20.269Z,2.75
2022-12-19T02:54:53.849Z,21.60
2022-12-19T02:57:51.859Z,21.90
2022-12-19T03:00:25.868Z,22.83
2022-12-19T03:03:11.605Z,22.80
2022-12-19T03:08:26.754Z,25.08
2022-12-19T03:11:10.311Z,22.75
2022-12-19T03:14:01.000Z,22.95
2022-12-19T03:16:29.058Z,28.00
2022-12-19T03:18:58.045Z,24.77
2022-12-19T03:21:38.872Z,24.08
2022-12-19T03:24:08.411Z,24.40
2022-12-19T03:26:48.767Z,23.45
2022-12-19T03:29:33.016Z,23.08
2022-12-19T03:32:05.672Z,22.80
2022-12-19T03:34:40.386Z,21.50
2022-12-19T03:37:13.503Z,25.88
2022-12-19T03:39:43.778Z,23.45
2022-12-19T03:42:33.592Z,24.80
2022-12-19T03:45:04.974Z,23.38
2022-12-19T03:47:41.794Z,23.67
2022-12-19T03:50:10.141Z,23.98
2022-12-19T03:53:06.876Z,23.75
2022-12-19T03:55:53.729Z,23.50
2022-12-19T03:58:34.042Z,23.08
2022-12-19T04:01:03.820Z,25.52
2022-12-19T04:03:32.175Z,25.10
2022-12-19T04:06:02.355Z,26.35
2022-12-19T04:08:31.867Z,29.80
2022-12-19T04:11:07.217Z,28.13
2022-12-19T04:13:48.040Z,27.58
2022-12-19T04:16:24.519Z,27.30
2022-12-19T04:19:01.318Z,27.75
2022-12-19T04:21:35.844Z,27.67
2022-12-19T04:24:09.986Z,25.58
2022-12-19T04:26:44.160Z,26.73
2022-12-19T04:29:13.502Z,28.77
2022-12-19T04:31:41.821Z,24.88
2022-12-19T04:34:09.546Z,26.23
2022-12-19T04:36:37.265Z,26.50
2022-12-19T04:39:05.135Z,27.17
2022-12-19T04:41:32.734Z,25.10
2022-12-19T04:44:00.327Z,26.00
2022-12-19T04:46:28.167Z,26.90
2022-12-19T04:48:55.798Z,27.73
2022-12-19T04:51:23.512Z,28.92
2022-12-19T04:53:51.151Z,25.45
2022-12-19T04:56:18.908Z,26.08
2022-12-19T04:58:47.304Z,29.23
2022-12-19T05:01:14.965Z,28.42
2022-12-19T05:03:42.688Z,5.63
2022-12-19T05:06:13.651Z,28.52
2022-12-19T05:08:42.900Z,28.05
2022-12-19T05:11:19.015Z,26.65
2022-12-19T05:13:48.170Z,25.05
2022-12-19T05:16:17.773Z,25.40
2022-12-19T05:18:45.495Z,27.92
2022-12-19T05:21:13.418Z,26.65
2022-12-19T05:23:41.188Z,3.92
2022-12-19T05:26:09.049Z,27.70
2022-12-19T05:28:37.172Z,30.95
2022-12-19T05:31:07.705Z,30.95
2022-12-19T05:33:36.203Z,27.10
2022-12-19T05:36:05.009Z,27.85
2022-12-19T05:38:32.920Z,28.88
2022-12-19T05:41:00.768Z,25.83
2022-12-19T05:43:28.379Z,29.27
2022-12-19T05:45:56.114Z,29.70
2022-12-19T05:48:23.770Z,29.38
2022-12-19T05:50:51.478Z,29.55
2022-12-19T05:53:25.876Z,29.58
2022-12-19T05:56:09.098Z,28.00
2022-12-19T05:58:38.407Z,28.02
2022-12-19T06:01:17.541Z,26.85
2022-12-19T06:03:46.334Z,29.33
2022-12-19T06:06:19.513Z,29.25
2022-12-19T06:08:47.777Z,28.15
2022-12-19T06:11:16.780Z,28.40
2022-12-19T06:13:44.339Z,33.67
2022-12-19T06:16:14.550Z,29.45
2022-12-19T06:18:45.023Z,27.90
2022-12-19T06:21:18.355Z,28.60
2022-12-19T06:23:46.311Z,27.13
2022-12-19T06:26:19.592Z,25.73
2022-12-19T06:28:49.365Z,25.30
2022-12-19T06:31:18.091Z,26.23
2022-12-19T06:33:50.585Z,5.55
2022-12-19T06:36:26.259Z,29.10
2022-12-19T06:38:55.804Z,28.88
2022-12-19T06:41:43.564Z,29.55
2022-12-19T06:44:12.990Z,27.58
2022-12-19T06:46:41.390Z,28.63
2022-12-19T06:49:10.125Z,28.80
2022-12-19T06:51:42.120Z,26.85
2022-12-19T06:54:16.053Z,29.63
2022-12-19T06:56:45.115Z,28.92
2022-12-19T06:59:14.931Z,28.45
2022-12-19T07:02:00.927Z,29.52
2022-12-19T07:04:37.451Z,28.17
2022-12-19T07:07:05.444Z,31.70
2022-12-19T07:09:35.736Z,4.45
2022-12-19T07:12:19.792Z,30.42
2022-12-19T07:15:13.139Z,29.67
2022-12-19T07:17:50.692Z,29.05
2022-12-19T07:20:24.835Z,28.77
2022-12-19T07:23:29.473Z,28.70
2022-12-19T07:29:23.944Z,28.98
2022-12-19T07:31:56.203Z,29.55
2022-12-19T07:34:37.444Z,28.00
2022-12-19T07:37:08.453Z,29.05
2022-12-19T07:39:36.780Z,28.55
2022-12-19T07:42:13.672Z,28.13
2022-12-19T07:44:42.506Z,27.13
2022-12-19T07:47:11.319Z,29.90
2022-12-19T07:49:39.930Z,30.15
2022-12-19T07:52:08.967Z,30.45
2022-12-19T07:54:37.877Z,30.02
2022-12-19T07:57:05.820Z,28.50
2022-12-19T08:05:35.288Z,27.27
2022-12-19T08:08:02.677Z,27.23
2022-12-19T08:10:31.162Z,27.67
2022-12-19T08:12:59.773Z,27.33
2022-12-19T08:15:27.416Z,28.63
2022-12-19T08:17:55.022Z,27.20
2022-12-19T08:20:22.411Z,29.83
2022-12-19T08:22:49.896Z,27.33
2022-12-19T08:25:17.589Z,30.05
2022-12-19T08:27:45.100Z,29.85
2022-12-19T08:30:14.151Z,28.65
2022-12-19T08:32:41.721Z,29.10
2022-12-19T08:35:10.259Z,28.83
2022-12-19T08:37:39.578Z,28.70
2022-12-19T08:40:08.768Z,27.05
2022-12-19T08:42:37.238Z,28.05
2022-12-19T08:49:38.696Z,29.02
2022-12-19T08:52:06.221Z,29.25
2022-12-19T08:54:33.993Z,27.58
2022-12-19T09:06:18.716Z,29.52
2022-12-19T09:08:47.002Z,28.58
2022-12-19T09:11:16.924Z,28.42
2022-12-19T09:13:45.034Z,29.13
2022-12-19T09:16:13.787Z,29.83
2022-12-19T09:28:26.419Z,31.85
2022-12-19T09:30:40.046Z,31.80
2022-12-19T09:33:07.512Z,32.13
2022-12-19T09:35:36.857Z,30.95
2022-12-19T09:38:04.773Z,31.08
2022-12-19T09:49:46.928Z,31.70
2022-12-19T09:52:19.460Z,30.60
2022-12-19T09:55:17.178Z,27.58
2022-12-19T09:57:50.701Z,25.55
2022-12-19T10:00:21.306Z,26.15
2022-12-19T10:17:22.988Z,22.67
2022-12-19T10:19:58.968Z,23.30
2022-12-19T10:23:00.095Z,24.20
2022-12-19T10:25:47.602Z,21.88
2022-12-19T10:32:54.347Z,23.88
2022-12-19T10:35:23.769Z,23.90
2022-12-19T10:38:00.044Z,23.83
2022-12-19T10:49:31.218Z,23.80
2022-12-19T10:52:08.100Z,23.95
2022-12-19T10:54:38.601Z,24.27
2022-12-19T10:57:25.536Z,24.63
2022-12-19T10:59:59.904Z,23.48
2022-12-19T11:15:30.854Z,24.30
2022-12-19T11:17:55.010Z,24.67
2022-12-19T11:29:39.899Z,25.23
2022-12-19T11:30:58.917Z,24.45
2022-12-19T11:32:40.675Z,25.20
2022-12-19T11:49:02.131Z,26.02
2022-12-19T12:01:05.779Z,23.60
2022-12-19T12:04:10.646Z,24.05
2022-12-19T12:19:21.847Z,22.55
2022-12-19T12:25:06.097Z,23.80
2022-12-19T12:31:45.125Z,23.48
2022-12-19T12:31:50.994Z,22.38
2022-12-19T12:35:50.039Z,22.08
2022-12-19T12:44:11.043Z,21.95
2022-12-19T12:46:43.995Z,22.30
2022-12-19T12:49:48.541Z,21.23
2022-12-19T12:52:22.099Z,22.23
2022-12-19T12:54:51.154Z,21.90
2022-12-19T12:57:33.871Z,23.83
2022-12-19T13:00:32.926Z,22.17
2022-12-19T13:03:03.971Z,21.85
2022-12-19T13:05:46.485Z,27.45
2022-12-19T13:08:34.457Z,25.88
2022-12-19T13:11:33.875Z,24.98
2022-12-19T13:14:01.415Z,25.65
2022-12-19T13:16:44.190Z,23.05
2022-12-19T13:19:25.778Z,22.77
2022-12-19T13:22:05.013Z,23.08
2022-12-19T13:24:56.092Z,24.58
2022-12-19T13:27:23.935Z,22.98
2022-12-19T13:30:00.296Z,23.38
2022-12-19T13:32:39.079Z,25.63
2022-12-19T13:36:37.319Z,24.20
2022-12-19T13:39:55.430Z,27.13
2022-12-19T13:43:13.582Z,23.73
2022-12-19T13:54:59.542Z,24.92
2022-12-19T13:57:30.291Z,25.25
2022-12-19T14:00:03.542Z,25.13
2022-12-19T14:06:16.636Z,25.77
2022-12-19T14:08:28.975Z,24.70
2022-12-19T14:14:39.938Z,25.10
2022-12-19T14:17:22.383Z,26.58
2022-12-19T14:22:02.784Z,24.45
2022-12-19T14:23:42.859Z,25.25
2022-12-19T14:28:19.052Z,25.73
2022-12-19T14:33:46.230Z,25.70
2022-12-19T14:36:43.500Z,24.98
2022-12-19T14:44:00.434Z,25.98
2022-12-19T15:14:56.112Z,25.90
2022-12-19T15:20:27.293Z,27.38
2022-12-19T15:24:12.403Z,25.98
2022-12-19T15:27:45.816Z,27.85
2022-12-19T15:30:51.992Z,28.20
2022-12-19T15:41:16.742Z,28.02
2022-12-19T15:44:04.047Z,28.23
2022-12-19T15:47:01.222Z,28.25
2022-12-19T15:50:42.754Z,27.35
2022-12-19T15:53:49.271Z,28.35
2022-12-19T15:56:28.053Z,29.48
2022-12-19T15:58:58.817Z,27.95
2022-12-19T16:01:26.830Z,28.63
2022-12-19T16:03:56.926Z,30.42
2022-12-19T16:06:24.623Z,31.17
2022-12-19T16:08:52.248Z,29.08
2022-12-19T16:11:24.561Z,30.30
2022-12-19T16:13:55.726Z,31.50
2022-12-19T16:16:23.405Z,31.75
2022-12-19T16:18:51.056Z,35.05
2022-12-19T16:21:31.594Z,34.55
2022-12-19T16:24:01.657Z,32.45
2022-12-19T16:26:34.688Z,32.88
2022-12-19T16:29:02.919Z,32.70
2022-12-19T16:31:30.873Z,31.80
2022-12-19T16:33:58.451Z,32.53
2022-12-19T16:36:25.911Z,31.92
2022-12-19T16:38:53.493Z,31.92
2022-12-19T16:41:25.252Z,33.08
2022-12-19T16:43:52.904Z,32.95
2022-12-19T16:46:23.579Z,32.58
2022-12-19T16:48:51.141Z,31.60
2022-12-19T16:51:27.634Z,35.90
2022-12-19T16:53:58.940Z,33.90
2022-12-19T16:56:40.726Z,34.03
2022-12-19T16:59:38.242Z,33.75
2022-12-19T17:02:38.218Z,34.20
2022-12-19T17:05:07.918Z,33.60
2022-12-19T17:07:35.594Z,31.60
2022-12-19T17:10:03.185Z,32.05
2022-12-19T17:12:30.750Z,31.42
2022-12-19T17:15:01.681Z,30.48
2022-12-19T17:17:29.147Z,28.38
2022-12-19T17:19:56.585Z,28.65
2022-12-19T17:22:24.043Z,28.30
2022-12-19T17:24:51.657Z,27.10
2022-12-19T17:27:21.053Z,29.08
2022-12-19T17:29:48.527Z,29.42
2022-12-19T17:32:23.601Z,28.42
2022-12-19T17:34:52.799Z,28.83
2022-12-19T17:37:20.516Z,28.92
2022-12-19T17:39:48.656Z,28.77
2022-12-19T17:42:24.117Z,30.48
2022-12-19T17:44:52.049Z,30.70
2022-12-19T17:47:21.187Z,32.63
2022-12-19T17:49:49.380Z,30.75
2022-12-19T17:52:19.755Z,29.88
2022-12-19T17:54:47.547Z,31.55
2022-12-19T17:57:16.253Z,30.45
2022-12-19T17:59:46.339Z,30.98
2022-12-19T18:02:24.787Z,30.08
2022-12-19T18:04:52.804Z,30.83
2022-12-19T18:07:20.287Z,31.38
2022-12-19T18:09:47.746Z,31.10
2022-12-19T18:12:15.379Z,29.48
2022-12-19T18:14:42.846Z,31.15
2022-12-19T18:17:12.950Z,31.88
2022-12-19T18:19:40.545Z,31.33
2022-12-19T18:22:14.577Z,31.30
2022-12-19T18:24:42.408Z,30.98
2022-12-19T18:27:10.359Z,30.00
2022-12-19T18:29:37.867Z,30.88
2022-12-19T18:32:05.411Z,29.27
2022-12-19T18:34:34.448Z,31.25
2022-12-19T18:37:02.855Z,29.60
2022-12-19T18:39:32.072Z,30.00
2022-12-19T18:41:59.659Z,31.50
2022-12-19T18:44:27.097Z,30.05
2022-12-19T18:46:54.602Z,30.58
2022-12-19T18:49:23.053Z,30.50
2022-12-19T18:51:50.552Z,29.83
2022-12-19T18:54:21.845Z,30.40
2022-12-19T18:56:49.390Z,32.17
2022-12-19T18:59:16.965Z,31.90
2022-12-19T19:01:46.958Z,32.13
2022-12-19T19:04:18.371Z,32.33
2022-12-19T19:06:51.785Z,31.33
2022-12-19T19:09:21.008Z,31.55
2022-12-19T19:12:27.105Z,32.58
2022-12-19T19:14:54.461Z,32.08
2022-12-19T19:17:28.235Z,33.38
2022-12-19T19:19:55.848Z,30.98
2022-12-19T19:22:24.820Z,33.42
2022-12-19T19:24:52.347Z,33.35
2022-12-19T19:27:19.842Z,33.55
2022-12-19T19:29:47.263Z,33.17
2022-12-19T19:32:14.745Z,33.53
2022-12-19T19:34:42.987Z,31.90
2022-12-19T19:37:13.736Z,33.55
2022-12-19T19:39:41.967Z,33.15
2022-12-19T19:42:09.689Z,33.92
2022-12-19T19:44:37.182Z,32.03
2022-12-19T19:47:04.751Z,32.88
2022-12-19T19:49:50.457Z,34.00
2022-12-19T19:52:17.928Z,33.85
2022-12-19T19:54:45.752Z,31.23
2022-12-19T19:57:13.334Z,33.08
2022-12-19T19:59:40.807Z,33.75
2022-12-19T20:02:11.479Z,33.80
2022-12-19T20:04:39.560Z,33.13
2022-12-19T20:07:07.977Z,30.98
2022-12-19T20:09:35.437Z,33.38
2022-12-19T20:12:03.095Z,33.30
2022-12-19T20:14:30.643Z,32.15
2022-12-19T20:16:59.386Z,33.10
2022-12-19T20:19:28.002Z,33.95
2022-12-19T20:21:56.892Z,34.20
2022-12-19T20:24:25.003Z,34.08
2022-12-19T20:26:52.941Z,34.78
2022-12-19T20:29:20.965Z,34.20
2022-12-19T20:31:50.264Z,33.67
2022-12-19T20:34:20.243Z,34.45
2022-12-19T20:36:49.628Z,33.85
2022-12-19T20:39:22.160Z,34.00
2022-12-19T20:41:52.840Z,33.53
2022-12-19T20:44:24.473Z,33.95
2022-12-19T20:46:54.075Z,34.17
2022-12-19T20:49:23.561Z,34.95
2022-12-19T20:51:51.189Z,32.97
2022-12-19T20:54:21.707Z,34.85
2022-12-19T20:56:49.372Z,33.08
2022-12-19T20:59:17.198Z,35.70
2022-12-19T21:01:46.587Z,35.60
2022-12-19T21:04:15.707Z,36.35
2022-12-19T21:06:43.824Z,35.55
2022-12-19T21:09:12.529Z,36.67
2022-12-19T21:11:43.519Z,36.90
2022-12-19T21:14:12.757Z,36.95
2022-12-19T21:16:41.044Z,37.05
2022-12-19T21:19:10.293Z,36.47
2022-12-19T21:22:06.543Z,37.13
2022-12-19T21:24:35.354Z,36.20
2022-12-19T21:27:03.221Z,36.35
2022-12-19T21:29:31.123Z,36.75
2022-12-19T21:31:58.786Z,37.70
2022-12-19T21:34:26.594Z,36.38
2022-12-19T21:36:54.296Z,37.00
2022-12-19T21:39:25.514Z,36.03
2022-12-19T21:41:53.004Z,36.35
2022-12-19T21:44:20.745Z,35.15
2022-12-19T21:46:48.394Z,35.55
2022-12-19T21:49:16.120Z,35.30
2022-12-19T21:51:43.796Z,36.65
2022-12-19T21:54:11.654Z,36.08
2022-12-19T21:56:40.822Z,38.05
2022-12-19T21:59:16.625Z,36.63
2022-12-19T22:01:45.347Z,36.85
2022-12-19T22:04:22.943Z,35.97
2022-12-19T22:06:51.938Z,35.95
2022-12-19T22:09:22.738Z,35.20
2022-12-19T22:11:53.549Z,35.50
2022-12-19T22:14:29.116Z,36.60
2022-12-19T22:16:59.834Z,37.15
2022-12-19T22:19:27.699Z,36.63
2022-12-19T22:21:56.361Z,37.88
2022-12-19T22:24:24.981Z,35.10
2022-12-19T22:26:53.061Z,36.97
2022-12-19T22:29:31.896Z,36.45
2022-12-19T22:36:04.783Z,36.00
2022-12-19T22:38:49.353Z,36.05
2022-12-19T22:41:19.477Z,36.60
2022-12-19T22:44:17.089Z,38.67
2022-12-19T22:49:33.203Z,36.78
2022-12-19T22:52:01.126Z,38.47
2022-12-19T22:54:29.951Z,37.08
2022-12-19T22:57:02.733Z,37.85
2022-12-19T22:59:30.575Z,37.15
2022-12-19T23:02:01.484Z,36.17
2022-12-19T23:04:29.331Z,36.55
2022-12-19T23:06:57.010Z,36.05
2022-12-19T23:09:38.083Z,37.10
2022-12-19T23:12:07.294Z,36.50
2022-12-19T23:14:40.422Z,36.10
2022-12-19T23:17:08.176Z,36.00
2022-12-19T23:19:35.865Z,36.63
2022-12-19T23:23:09.227Z,41.28
2022-12-19T23:27:10.238Z,39.53
2022-12-19T23:30:14.964Z,38.38
2022-12-19T23:37:20.227Z,35.85
2022-12-19T23:41:15.322Z,36.15
2022-12-19T23:44:40.411Z,35.17
2022-12-19T23:47:11.049Z,35.30
2022-12-19T23:49:38.796Z,35.15
2022-12-19T23:58:00.999Z,37.72
